Contacto @
curve curve curve curve

METEOROLOGÍA AERONÁUTICA

METEOROLOGÍA PARA PILOTOS

La información meteorológica que aparece se utiliza en las prácticas de los alumnos de los cursos de Piloto de nuestro centro de formación aeronáutica ATO, por lo que puede no ser actual y debe ser usada por su propia cuenta y riesgo. AERBRAVA no se hace responsable de su uso.



MAPA DEL TIEMPO SIGNIFICATIVO DE LA PENÍNSULA IBÈRICA



Seleccionar la hora del día 25-04-2017 00 06 12 18
Seleccionar la hora del día 26-04-2017 00 06 12 18
Seleccionar la;hora del día 27-04-2017 00
Agencia Estatal de Meteorología
Matrícula abierta Piloto RPAs - Drones - UAVs.
Miércoles, 26 de Abril de 2017
Página cargada a las 19:30 UTC
Orto: 04:54 UTC
Ocaso: 18:39 UTC

2017/04/26 19:00 LEGE 261900Z 03005KT 360V060 9999 FEW005 BKN040 09/06 Q1010


2017/04/26 18:27 TAF LEGE 261700Z 2618/2718 02007KT 9999 BKN030 TX15/2713Z TN06/2706Z PROB40 TEMPO 2700/2712 3000 RA BKN014
Sólo se muestran los aviones equipados con el sistema ADS-B en directo desde FlightRadar24
Aerbrava en el facebook Aerbrava en el youtube Aerbrava en el twitter Google+
Instagram tumblr flikr
logo inicio Nosotros | Mapa del sitio | Oportunidades profesionales | Privacidad | Contacte con nosotros | © 2017 AERBRAVA, SCP